createdAt,value
2022-10-09T00:01:07.844Z,13.11
2022-10-09T00:03:35.387Z,13.21
2022-10-09T00:06:02.734Z,13.18
2022-10-09T00:08:30.023Z,13.33
2022-10-09T00:10:56.842Z,13.36
2022-10-09T00:13:23.588Z,13.22
2022-10-09T00:15:50.347Z,13.45
2022-10-09T00:18:18.812Z,13.16
2022-10-09T00:20:46.861Z,13.12
2022-10-09T00:23:16.643Z,13.05
2022-10-09T00:25:53.820Z,12.66
2022-10-09T00:28:24.921Z,12.89
2022-10-09T00:30:53.717Z,12.91
2022-10-09T00:33:20.604Z,12.96
2022-10-09T00:35:52.870Z,12.99
2022-10-09T00:38:19.659Z,13.02
2022-10-09T00:40:46.386Z,12.90
2022-10-09T00:43:19.184Z,12.64
2022-10-09T00:45:50.957Z,12.62
2022-10-09T00:48:18.775Z,12.47
2022-10-09T00:50:49.961Z,12.47
2022-10-09T00:53:18.522Z,12.45
2022-10-09T00:55:45.448Z,12.63
2022-10-09T00:58:13.245Z,12.68
2022-10-09T01:00:40.471Z,12.67
2022-10-09T01:03:07.206Z,12.61
2022-10-09T01:06:07.766Z,12.33
2022-10-09T01:08:49.222Z,12.33
2022-10-09T01:11:42.381Z,12.44
2022-10-09T01:14:24.919Z,12.38
2022-10-09T01:17:10.195Z,12.43
2022-10-09T01:20:29.127Z,12.48
2022-10-09T01:23:18.176Z,12.31
2022-10-09T01:25:58.260Z,12.32
2022-10-09T01:28:29.239Z,12.14
2022-10-09T01:30:58.423Z,12.24
2022-10-09T01:33:25.187Z,12.30
2022-10-09T01:35:52.507Z,12.41
2022-10-09T01:38:20.751Z,12.24
2022-10-09T01:40:47.542Z,12.14
2022-10-09T01:43:14.594Z,12.25
2022-10-09T01:45:44.574Z,12.19
2022-10-09T01:48:17.089Z,12.10
2022-10-09T01:50:46.086Z,12.14
2022-10-09T01:53:17.468Z,12.26
2022-10-09T01:56:03.475Z,12.21
2022-10-09T01:58:31.979Z,12.28
2022-10-09T02:01:13.754Z,12.25
2022-10-09T02:03:43.069Z,12.19
2022-10-09T02:06:12.654Z,11.95
2022-10-09T02:08:39.725Z,11.94
2022-10-09T02:11:06.783Z,11.86
2022-10-09T02:13:34.585Z,11.98
2022-10-09T02:16:10.888Z,12.11
2022-10-09T02:18:40.759Z,11.84
2022-10-09T02:21:12.953Z,11.66
2022-10-09T02:23:40.546Z,11.73
2022-10-09T02:26:08.225Z,11.76
2022-10-09T02:28:35.486Z,11.61
2022-10-09T02:31:08.387Z,11.41
2022-10-09T02:33:35.467Z,11.48
2022-10-09T02:36:02.533Z,11.50
2022-10-09T02:38:29.321Z,11.57
2022-10-09T02:41:02.773Z,11.59
2022-10-09T02:43:29.766Z,11.65
2022-10-09T02:45:56.564Z,11.63
2022-10-09T02:48:23.563Z,11.68
2022-10-09T02:50:50.257Z,11.50
2022-10-09T02:53:17.007Z,11.56
2022-10-09T02:55:43.673Z,11.55
2022-10-09T02:58:10.378Z,11.51
2022-10-09T03:00:39.196Z,11.60
2022-10-09T03:03:06.431Z,11.65
2022-10-09T03:05:33.324Z,11.56
2022-10-09T03:08:00.031Z,11.58
2022-10-09T03:10:26.705Z,11.55
2022-10-09T03:12:53.393Z,11.52
2022-10-09T03:15:20.286Z,11.53
2022-10-09T03:17:47.072Z,11.46
2022-10-09T03:20:13.802Z,11.51
2022-10-09T03:22:40.565Z,11.53
2022-10-09T03:25:07.930Z,11.48
2022-10-09T03:27:35.722Z,11.33
2022-10-09T03:30:02.680Z,11.48
2022-10-09T03:32:29.394Z,11.31
2022-10-09T03:34:56.192Z,11.44
2022-10-09T03:37:24.133Z,11.39
2022-10-09T03:39:50.825Z,11.54
2022-10-09T03:42:17.613Z,11.52
2022-10-09T03:44:44.316Z,11.50
2022-10-09T03:47:11.026Z,11.47
2022-10-09T03:49:37.721Z,11.52
2022-10-09T03:52:04.412Z,11.51
2022-10-09T03:54:31.155Z,11.39
2022-10-09T03:56:58.050Z,11.19
2022-10-09T03:59:24.788Z,11.45
2022-10-09T04:01:51.857Z,11.56
2022-10-09T04:04:18.601Z,11.47
2022-10-09T04:06:45.504Z,11.24
2022-10-09T04:09:12.264Z,11.33
2022-10-09T04:11:38.936Z,11.37
2022-10-09T04:14:05.645Z,11.32
2022-10-09T04:16:32.385Z,11.15
2022-10-09T04:18:59.199Z,11.28
2022-10-09T04:21:25.944Z,11.34
2022-10-09T04:23:52.760Z,11.27
2022-10-09T04:26:19.474Z,11.25
2022-10-09T04:28:46.335Z,11.41
2022-10-09T04:31:13.276Z,11.20
2022-10-09T04:33:39.996Z,11.29
2022-10-09T04:36:07.276Z,11.30
2022-10-09T04:38:34.090Z,11.12
2022-10-09T04:41:05.898Z,11.29
2022-10-09T04:43:33.796Z,11.20
2022-10-09T04:46:07.958Z,11.30
2022-10-09T04:48:42.804Z,11.30
2022-10-09T04:51:10.201Z,11.25
2022-10-09T04:53:37.548Z,11.28
2022-10-09T04:56:15.104Z,11.31
2022-10-09T04:58:42.452Z,11.32
2022-10-09T05:01:12.737Z,11.25
2022-10-09T05:03:39.507Z,11.20
2022-10-09T05:06:08.645Z,11.33
2022-10-09T05:08:36.149Z,11.39
2022-10-09T05:11:04.702Z,11.39
2022-10-09T05:13:39.046Z,11.27
2022-10-09T05:16:08.508Z,11.31
2022-10-09T05:18:36.101Z,11.32
2022-10-09T05:21:05.978Z,11.52
2022-10-09T05:23:32.928Z,11.48
2022-10-09T05:26:19.231Z,11.31
2022-10-09T05:28:50.783Z,11.38
2022-10-09T05:31:23.450Z,11.04
2022-10-09T05:33:50.480Z,11.38
2022-10-09T05:36:17.646Z,11.18
2022-10-09T05:38:45.187Z,11.22
2022-10-09T05:41:14.641Z,11.05
2022-10-09T05:43:43.647Z,11.07
2022-10-09T05:46:23.580Z,11.05
2022-10-09T05:48:55.405Z,11.13
2022-10-09T05:51:33.051Z,11.19
2022-10-09T05:54:02.232Z,11.22
2022-10-09T05:56:31.067Z,11.10
2022-10-09T05:59:06.498Z,11.20
2022-10-09T06:01:35.186Z,11.27
2022-10-09T06:04:02.662Z,11.27
2022-10-09T06:06:32.708Z,11.04
2022-10-09T06:08:59.860Z,11.14
2022-10-09T06:11:47.177Z,11.00
2022-10-09T06:14:14.125Z,11.05
2022-10-09T06:16:43.969Z,11.00
2022-10-09T06:19:13.696Z,11.10
2022-10-09T06:21:40.718Z,11.07
2022-10-09T06:24:11.648Z,11.06
2022-10-09T06:26:39.768Z,11.06
2022-10-09T06:29:06.514Z,11.09
2022-10-09T06:31:34.000Z,11.17
2022-10-09T06:34:04.897Z,11.28
2022-10-09T06:36:34.749Z,11.30
2022-10-09T06:39:05.594Z,11.37
2022-10-09T06:41:34.943Z,11.46
2022-10-09T06:44:16.855Z,11.29
2022-10-09T06:46:46.233Z,11.37
2022-10-09T06:49:13.303Z,11.35
2022-10-09T06:54:26.021Z,11.31
2022-10-09T06:56:55.223Z,11.42
2022-10-09T06:59:21.965Z,11.61
2022-10-09T07:01:48.741Z,11.68
2022-10-09T07:04:17.667Z,11.88
2022-10-09T07:06:46.753Z,11.58
2022-10-09T07:09:14.943Z,11.52
2022-10-09T07:11:46.170Z,11.37
2022-10-09T07:14:14.164Z,11.31
2022-10-09T07:16:42.989Z,11.72
2022-10-09T07:19:11.821Z,11.66
2022-10-09T07:21:41.270Z,11.96
2022-10-09T07:24:08.782Z,11.59
2022-10-09T07:26:38.070Z,11.69
2022-10-09T07:29:05.949Z,11.60
2022-10-09T07:31:32.681Z,11.74
2022-10-09T07:33:59.426Z,11.53
2022-10-09T07:36:26.309Z,12.70
2022-10-09T07:38:54.919Z,15.50
2022-10-09T07:41:22.717Z,17.26
2022-10-09T07:43:49.522Z,18.46
2022-10-09T07:46:18.610Z,18.97
2022-10-09T07:48:46.076Z,20.15
2022-10-09T07:51:16.932Z,21.17
2022-10-09T07:53:45.087Z,21.93
2022-10-09T07:56:16.552Z,22.66
2022-10-09T07:58:44.462Z,21.17
2022-10-09T08:01:13.180Z,20.57
2022-10-09T08:03:43.018Z,21.57
2022-10-09T08:06:10.299Z,20.82
2022-10-09T08:08:37.059Z,21.20
2022-10-09T08:11:11.730Z,20.78
2022-10-09T08:13:39.505Z,20.45
2022-10-09T08:16:07.086Z,20.08
2022-10-09T08:18:34.343Z,18.06
2022-10-09T08:21:02.771Z,17.02
2022-10-09T08:23:29.569Z,16.61
2022-10-09T08:25:56.333Z,16.79
2022-10-09T08:28:23.394Z,16.64
2022-10-09T08:30:50.138Z,16.66
2022-10-09T08:33:21.994Z,17.40
2022-10-09T08:35:50.042Z,16.62
2022-10-09T08:38:37.632Z,16.72
2022-10-09T08:41:12.841Z,16.09
2022-10-09T08:43:44.668Z,16.05
2022-10-09T08:46:28.465Z,15.97
2022-10-09T08:48:55.999Z,15.64
2022-10-09T08:51:26.619Z,15.89
2022-10-09T08:54:01.961Z,15.60
2022-10-09T08:56:29.317Z,15.51
2022-10-09T08:58:56.057Z,15.80
2022-10-09T09:01:25.249Z,16.30
2022-10-09T09:04:21.186Z,15.89
2022-10-09T09:06:51.581Z,15.49
2022-10-09T09:09:27.593Z,15.48
2022-10-09T09:12:05.404Z,15.89
2022-10-09T09:14:59.398Z,15.72
2022-10-09T09:17:38.835Z,16.66
2022-10-09T09:20:16.371Z,15.85
2022-10-09T09:22:48.311Z,15.82
2022-10-09T09:25:28.372Z,16.01
2022-10-09T09:28:00.019Z,16.65
2022-10-09T09:30:30.737Z,16.09
2022-10-09T09:33:07.538Z,15.82
2022-10-09T09:36:14.040Z,16.56
2022-10-09T09:39:12.624Z,16.33
2022-10-09T09:41:29.118Z,16.71
2022-10-09T09:43:56.275Z,16.45
2022-10-09T09:46:28.948Z,16.55
2022-10-09T09:48:56.228Z,16.76
2022-10-09T09:51:29.205Z,16.64
2022-10-09T09:54:04.332Z,16.56
2022-10-09T09:56:59.660Z,16.69
2022-10-09T09:59:38.365Z,16.42
2022-10-09T10:02:21.284Z,16.72
2022-10-09T10:04:52.354Z,17.00
2022-10-09T10:07:37.000Z,16.88
2022-10-09T10:10:17.090Z,17.35
2022-10-09T10:12:57.804Z,16.77
2022-10-09T10:15:32.951Z,16.54
2022-10-09T10:18:16.726Z,16.81
2022-10-09T10:20:49.731Z,16.52
2022-10-09T10:23:38.156Z,16.81
2022-10-09T10:26:19.703Z,16.82
2022-10-09T10:29:00.533Z,16.98
2022-10-09T10:31:52.079Z,17.11
2022-10-09T10:34:26.400Z,17.22
2022-10-09T10:37:02.577Z,17.24
2022-10-09T10:39:37.552Z,17.50
2022-10-09T10:42:10.254Z,17.45
2022-10-09T10:44:49.164Z,17.43
2022-10-09T10:47:22.709Z,18.13
2022-10-09T10:49:50.026Z,17.53
2022-10-09T10:52:44.770Z,17.52
2022-10-09T10:55:35.342Z,17.99
2022-10-09T10:58:12.266Z,18.01
2022-10-09T11:00:42.014Z,17.86
2022-10-09T11:03:21.655Z,17.91
2022-10-09T11:06:17.568Z,18.06
2022-10-09T11:09:03.711Z,18.08
2022-10-09T11:11:51.622Z,17.92
2022-10-09T11:14:27.266Z,17.99
2022-10-09T11:17:11.347Z,18.02
2022-10-09T11:20:09.572Z,18.76
2022-10-09T11:22:46.341Z,17.94
2022-10-09T11:25:27.079Z,18.01
2022-10-09T11:28:03.123Z,17.84
2022-10-09T11:30:38.318Z,18.02
2022-10-09T11:33:20.138Z,18.06
2022-10-09T11:36:19.206Z,18.77
2022-10-09T11:38:47.641Z,18.45
2022-10-09T11:41:14.825Z,18.70
2022-10-09T11:43:54.921Z,18.54
2022-10-09T11:46:38.968Z,18.44
2022-10-09T11:49:20.002Z,18.08
2022-10-09T11:52:11.397Z,18.26
2022-10-09T11:54:38.166Z,18.80
2022-10-09T11:57:06.586Z,18.78
2022-10-09T11:59:36.531Z,18.58
2022-10-09T12:02:24.533Z,18.61
2022-10-09T12:04:55.586Z,18.73
2022-10-09T12:07:41.051Z,18.56
2022-10-09T12:10:23.686Z,18.76
2022-10-09T12:13:00.169Z,18.61
2022-10-09T12:15:38.995Z,18.37
2022-10-09T12:18:35.007Z,18.64
2022-10-09T12:21:09.428Z,18.80
2022-10-09T12:23:38.084Z,18.23
2022-10-09T12:26:10.460Z,18.73
2022-10-09T12:28:50.483Z,18.59
2022-10-09T12:31:23.725Z,18.58
2022-10-09T12:34:03.424Z,18.70
2022-10-09T12:36:31.652Z,18.64
2022-10-09T12:39:12.347Z,18.59
2022-10-09T12:41:39.586Z,18.52
2022-10-09T12:44:07.921Z,18.87
2022-10-09T12:46:36.918Z,18.60
2022-10-09T12:49:06.013Z,18.38
2022-10-09T12:51:33.710Z,18.47
2022-10-09T12:54:08.460Z,18.65
2022-10-09T12:56:38.345Z,18.72
2022-10-09T12:59:06.496Z,18.42
2022-10-09T13:01:34.502Z,18.52
2022-10-09T13:04:05.529Z,18.50
2022-10-09T13:06:45.042Z,18.80
2022-10-09T13:09:47.211Z,18.98
2022-10-09T13:12:23.120Z,18.81
2022-10-09T13:14:58.157Z,18.82
2022-10-09T13:17:38.128Z,18.97
2022-10-09T13:20:29.019Z,18.99
2022-10-09T13:22:56.857Z,19.13
2022-10-09T13:25:25.950Z,19.56
2022-10-09T13:27:53.178Z,19.10
2022-10-09T13:30:19.894Z,19.32
2022-10-09T13:32:46.834Z,18.80
2022-10-09T13:35:14.244Z,18.99
2022-10-09T13:37:41.002Z,19.05
2022-10-09T13:40:12.049Z,19.08
2022-10-09T13:42:39.432Z,19.06
2022-10-09T13:45:07.050Z,19.33
2022-10-09T13:47:33.849Z,19.52
2022-10-09T13:50:00.617Z,19.36
2022-10-09T13:52:27.356Z,19.64
2022-10-09T13:54:54.454Z,19.46
2022-10-09T13:57:21.352Z,19.23
2022-10-09T13:59:48.087Z,19.31
2022-10-09T14:02:15.146Z,18.96
2022-10-09T14:04:42.032Z,19.30
2022-10-09T14:07:09.076Z,18.85
2022-10-09T14:09:36.128Z,19.35
2022-10-09T14:12:02.992Z,19.30
2022-10-09T14:14:29.987Z,19.44
2022-10-09T14:16:57.062Z,18.98
2022-10-09T14:19:27.537Z,19.11
2022-10-09T14:21:55.435Z,19.23
2022-10-09T14:24:22.072Z,19.07
2022-10-09T14:26:51.634Z,19.47
2022-10-09T14:29:19.112Z,19.12
2022-10-09T14:31:51.890Z,19.12
2022-10-09T14:34:18.711Z,19.13
2022-10-09T14:36:45.587Z,19.16
2022-10-09T14:39:12.268Z,19.44
2022-10-09T14:41:39.000Z,19.14
2022-10-09T14:44:06.241Z,19.45
2022-10-09T14:46:39.432Z,19.11
2022-10-09T14:49:08.035Z,19.22
2022-10-09T14:51:39.921Z,19.46
2022-10-09T14:54:08.603Z,19.68
2022-10-09T14:56:35.741Z,19.32
2022-10-09T14:59:02.674Z,19.35
2022-10-09T15:01:29.851Z,19.26
2022-10-09T15:03:57.173Z,19.60
2022-10-09T15:06:24.280Z,19.29
2022-10-09T15:09:04.679Z,19.74
2022-10-09T15:11:33.994Z,19.80
2022-10-09T15:14:00.741Z,19.60
2022-10-09T15:16:27.701Z,19.11
2022-10-09T15:18:54.941Z,19.31
2022-10-09T15:21:24.448Z,19.06
2022-10-09T15:23:53.985Z,19.34
2022-10-09T15:26:20.998Z,19.48
2022-10-09T15:28:48.057Z,19.40
2022-10-09T15:31:36.612Z,19.20
2022-10-09T15:34:04.074Z,19.23
2022-10-09T15:36:34.578Z,19.57
2022-10-09T15:39:05.627Z,19.49
2022-10-09T15:41:34.923Z,19.21
2022-10-09T15:44:08.413Z,19.40
2022-10-09T15:46:35.572Z,19.25
2022-10-09T15:49:02.395Z,19.26
2022-10-09T15:51:30.228Z,19.28
2022-10-09T15:53:59.103Z,19.47
2022-10-09T15:56:25.860Z,19.45
2022-10-09T15:58:54.432Z,19.05
2022-10-09T16:01:21.462Z,19.46
2022-10-09T16:03:48.830Z,19.04
2022-10-09T16:06:20.282Z,19.33
2022-10-09T16:08:47.327Z,19.13
2022-10-09T16:11:19.026Z,18.94
2022-10-09T16:13:48.694Z,19.34
2022-10-09T16:16:22.304Z,19.34
2022-10-09T16:18:49.321Z,19.34
2022-10-09T16:21:21.979Z,18.93
2022-10-09T16:23:49.236Z,19.03
2022-10-09T16:26:18.458Z,19.25
2022-10-09T16:28:46.662Z,19.32
2022-10-09T16:31:24.631Z,19.30
2022-10-09T16:33:52.049Z,18.90
2022-10-09T16:36:18.976Z,18.95
2022-10-09T16:38:45.987Z,18.93
2022-10-09T16:41:17.965Z,18.84
2022-10-09T16:43:46.963Z,19.09
2022-10-09T16:46:18.345Z,19.23
2022-10-09T16:48:45.715Z,19.06
2022-10-09T16:51:16.371Z,18.89
2022-10-09T16:53:43.408Z,18.79
2022-10-09T16:56:15.109Z,18.66
2022-10-09T16:58:42.836Z,18.59
2022-10-09T17:01:10.685Z,19.04
2022-10-09T17:03:40.602Z,19.16
2022-10-09T17:06:12.343Z,19.02
2022-10-09T17:08:39.182Z,19.09
2022-10-09T17:11:10.418Z,19.07
2022-10-09T17:13:37.288Z,19.15
2022-10-09T17:16:12.221Z,18.93
2022-10-09T17:18:41.319Z,19.03
2022-10-09T17:21:11.432Z,18.83
2022-10-09T17:23:38.210Z,18.85
2022-10-09T17:26:08.788Z,18.85
2022-10-09T17:28:36.585Z,18.64
2022-10-09T17:31:08.958Z,18.86
2022-10-09T17:33:43.030Z,18.80
2022-10-09T17:36:10.689Z,18.62
2022-10-09T17:38:37.402Z,18.60
2022-10-09T17:41:09.777Z,18.55
2022-10-09T17:43:37.030Z,18.74
2022-10-09T17:46:07.462Z,18.69
2022-10-09T17:48:36.270Z,18.77
2022-10-09T17:51:04.285Z,18.60
2022-10-09T17:53:31.596Z,18.58
2022-10-09T17:56:02.725Z,18.38
2022-10-09T17:58:29.783Z,18.42
2022-10-09T18:00:56.621Z,18.17
2022-10-09T18:03:23.597Z,18.30
2022-10-09T18:05:50.835Z,18.29
2022-10-09T18:08:19.405Z,18.21
2022-10-09T18:10:46.605Z,18.21
2022-10-09T18:13:14.302Z,17.84
2022-10-09T18:15:43.088Z,17.91
2022-10-09T18:18:10.887Z,17.92
2022-10-09T18:20:39.741Z,17.90
2022-10-09T18:23:07.401Z,17.84
2022-10-09T18:25:34.472Z,17.88
2022-10-09T18:28:01.254Z,17.90
2022-10-09T18:30:27.929Z,17.92
2022-10-09T18:32:54.632Z,17.66
2022-10-09T18:35:21.292Z,17.68
2022-10-09T18:37:48.622Z,17.55
2022-10-09T18:40:15.311Z,17.68
2022-10-09T18:42:42.033Z,17.46
2022-10-09T18:45:10.564Z,17.57
2022-10-09T18:47:37.436Z,17.50
2022-10-09T18:50:08.456Z,17.28
2022-10-09T18:52:35.907Z,17.11
2022-10-09T18:55:03.314Z,17.62
2022-10-09T18:57:30.394Z,17.52
2022-10-09T18:59:57.807Z,17.51
2022-10-09T19:02:26.945Z,17.24
2022-10-09T19:04:54.433Z,17.43
2022-10-09T19:07:21.151Z,17.56
2022-10-09T19:09:55.017Z,17.36
2022-10-09T19:12:24.959Z,17.48
2022-10-09T19:14:51.996Z,17.29
2022-10-09T19:17:18.881Z,17.26
2022-10-09T19:19:45.835Z,17.34
2022-10-09T19:22:16.519Z,17.41
2022-10-09T19:24:44.214Z,17.17
2022-10-09T19:27:11.118Z,17.25
2022-10-09T19:29:38.181Z,17.28
2022-10-09T19:32:05.039Z,17.21
2022-10-09T19:34:31.888Z,17.32
2022-10-09T19:36:58.701Z,17.18
2022-10-09T19:39:25.578Z,17.17
2022-10-09T19:41:52.350Z,16.89
2022-10-09T19:44:19.161Z,17.16
2022-10-09T19:46:45.979Z,16.99
2022-10-09T19:49:12.751Z,17.10
2022-10-09T19:51:39.740Z,17.02
2022-10-09T19:54:08.478Z,16.91
2022-10-09T19:56:36.261Z,16.58
2022-10-09T19:59:06.430Z,16.87
2022-10-09T20:01:35.478Z,16.83
2022-10-09T20:04:05.491Z,16.52
2022-10-09T20:06:32.813Z,16.66
2022-10-09T20:09:00.185Z,16.96
2022-10-09T20:11:27.048Z,16.90
2022-10-09T20:13:56.253Z,16.66
2022-10-09T20:16:23.964Z,16.84
2022-10-09T20:18:54.689Z,16.63
2022-10-09T20:21:21.441Z,16.81
2022-10-09T20:23:48.062Z,16.60
2022-10-09T20:26:17.467Z,16.66
2022-10-09T20:28:44.641Z,16.42
2022-10-09T20:31:18.050Z,16.56
2022-10-09T20:33:52.136Z,16.46
2022-10-09T20:36:31.614Z,16.46
2022-10-09T20:38:59.950Z,16.35
2022-10-09T20:41:30.205Z,16.51
2022-10-09T20:43:59.253Z,16.49
2022-10-09T20:46:28.337Z,16.39
2022-10-09T20:48:55.510Z,16.28
2022-10-09T20:51:23.038Z,16.34
2022-10-09T20:53:58.526Z,16.34
2022-10-09T20:56:28.008Z,16.49
2022-10-09T20:58:55.290Z,16.48
2022-10-09T21:01:22.113Z,16.19
2022-10-09T21:03:49.018Z,16.18
2022-10-09T21:06:18.016Z,16.04
2022-10-09T21:08:45.094Z,15.99
2022-10-09T21:11:13.602Z,16.15
2022-10-09T21:13:40.666Z,16.21
2022-10-09T21:16:09.663Z,16.08
2022-10-09T21:18:37.116Z,16.15
2022-10-09T21:21:08.880Z,16.08
2022-10-09T21:23:35.858Z,16.03
2022-10-09T21:26:02.834Z,16.07
2022-10-09T21:28:29.903Z,15.98
2022-10-09T21:30:56.736Z,15.87
2022-10-09T21:33:23.674Z,15.70
2022-10-09T21:35:51.294Z,15.85
2022-10-09T21:38:21.302Z,15.92
2022-10-09T21:40:49.487Z,15.69
2022-10-09T21:43:16.879Z,15.71
2022-10-09T21:45:44.303Z,15.65
2022-10-09T21:48:15.451Z,15.72
2022-10-09T21:50:42.509Z,15.70
2022-10-09T21:53:09.245Z,15.75
2022-10-09T21:55:37.987Z,15.71
2022-10-09T21:58:05.819Z,15.46
2022-10-09T22:00:33.106Z,15.44
2022-10-09T22:02:59.776Z,15.45
2022-10-09T22:05:26.786Z,15.70
2022-10-09T22:07:53.765Z,15.67
2022-10-09T22:10:20.820Z,15.74
2022-10-09T22:12:47.620Z,15.75
2022-10-09T22:15:14.661Z,15.65
2022-10-09T22:17:41.419Z,15.65
2022-10-09T22:20:09.146Z,15.77
2022-10-09T22:22:35.857Z,15.61
2022-10-09T22:25:02.645Z,15.61
2022-10-09T22:27:29.389Z,15.45
2022-10-09T22:29:56.046Z,15.36
2022-10-09T22:32:22.887Z,15.33
2022-10-09T22:34:52.613Z,15.54
2022-10-09T22:37:19.324Z,15.49
2022-10-09T22:39:46.076Z,15.25
2022-10-09T22:42:12.751Z,15.51
2022-10-09T22:44:39.523Z,15.64
2022-10-09T22:47:06.281Z,15.43
2022-10-09T22:49:33.127Z,15.44
2022-10-09T22:51:59.914Z,15.28
2022-10-09T22:54:26.561Z,15.45
2022-10-09T22:56:53.467Z,15.29
2022-10-09T22:59:20.150Z,15.42
2022-10-09T23:01:51.408Z,15.47
2022-10-09T23:04:19.123Z,15.22
2022-10-09T23:06:52.922Z,15.35
2022-10-09T23:09:19.973Z,15.43
2022-10-09T23:11:46.997Z,15.36
2022-10-09T23:14:14.020Z,15.46
2022-10-09T23:16:41.050Z,15.53
2022-10-09T23:19:08.169Z,15.36
2022-10-09T23:21:37.056Z,15.26
2022-10-09T23:24:04.708Z,15.31
2022-10-09T23:26:32.823Z,15.40
2022-10-09T23:29:02.793Z,15.23
2022-10-09T23:31:29.849Z,15.37
2022-10-09T23:33:57.140Z,15.36
2022-10-09T23:36:26.134Z,15.35
2022-10-09T23:38:53.089Z,15.27
2022-10-09T23:41:25.775Z,15.26
2022-10-09T23:43:53.381Z,15.07
2022-10-09T23:46:27.784Z,15.12
2022-10-09T23:48:55.326Z,15.14
2022-10-09T23:51:23.553Z,15.07
2022-10-09T23:53:50.919Z,15.22
2022-10-09T23:56:18.807Z,15.15
2022-10-09T23:58:45.708Z,15.01
